sensor_id;sensor_type;location;lat;lon;timestamp;P1;P2;P0
49914;PMS5003;35806;47.958;13.158;2022-11-20T08:28:02;6;6;
49914;PMS5003;35806;47.958;13.158;2022-11-20T08:30:31;7;7;
49914;PMS5003;35806;47.958;13.158;2022-11-20T08:33:00;7;6;
49914;PMS5003;35806;47.958;13.158;2022-11-20T08:35:34;8;8;
49914;PMS5003;35806;47.958;13.158;2022-11-20T08:38:02;9;8;
49914;PMS5003;35806;47.958;13.158;2022-11-20T08:40:29;8;7;
49914;PMS5003;35806;47.958;13.158;2022-11-20T08:42:57;6;6;
49914;PMS5003;35806;47.958;13.158;2022-11-20T08:45:25;9;8;
49914;PMS5003;35806;47.958;13.158;2022-11-20T08:47:52;6;5;
49914;PMS5003;35806;47.958;13.158;2022-11-20T08:50:19;8;7;
49914;PMS5003;35806;47.958;13.158;2022-11-20T08:52:46;6;6;
49914;PMS5003;35806;47.958;13.158;2022-11-20T08:55:12;7;4;
49914;PMS5003;35806;47.958;13.158;2022-11-20T08:57:39;6;6;
49914;PMS5003;35806;47.958;13.158;2022-11-20T09:00:07;7;7;
49914;PMS5003;35806;47.958;13.158;2022-11-20T09:02:36;5;5;
49914;PMS5003;35806;47.958;13.158;2022-11-20T09:05:03;9;7;
49914;PMS5003;35806;47.958;13.158;2022-11-20T09:07:30;6;6;
49914;PMS5003;35806;47.958;13.158;2022-11-20T09:10:02;5;5;
49914;PMS5003;35806;47.958;13.158;2022-11-20T09:12:30;5;5;
49914;PMS5003;35806;47.958;13.158;2022-11-20T09:15:02;4;4;
49914;PMS5003;35806;47.958;13.158;2022-11-20T09:17:30;4;4;
49914;PMS5003;35806;47.958;13.158;2022-11-20T09:19:57;3;3;
49914;PMS5003;35806;47.958;13.158;2022-11-20T09:22:25;5;5;
49914;PMS5003;35806;47.958;13.158;2022-11-20T09:24:51;3;3;
49914;PMS5003;35806;47.958;13.158;2022-11-20T09:27:18;5;5;
49914;PMS5003;35806;47.958;13.158;2022-11-20T09:29:46;4;4;
49914;PMS5003;35806;47.958;13.158;2022-11-20T09:32:12;5;5;
49914;PMS5003;35806;47.958;13.158;2022-11-20T09:34:39;5;5;
49914;PMS5003;35806;47.958;13.158;2022-11-20T09:37:06;4;4;
49914;PMS5003;35806;47.958;13.158;2022-11-20T09:39:33;5;5;
49914;PMS5003;35806;47.958;13.158;2022-11-20T09:42:12;5;5;
49914;PMS5003;35806;47.958;13.158;2022-11-20T09:44:59;5;5;
49914;PMS5003;35806;47.958;13.158;2022-11-20T09:47:41;5;5;
49914;PMS5003;35806;47.958;13.158;2022-11-20T09:50:25;6;6;
49914;PMS5003;35806;47.958;13.158;2022-11-20T09:53:02;4;4;
49914;PMS5003;35806;47.958;13.158;2022-11-20T09:55:37;5;5;
49914;PMS5003;35806;47.958;13.158;2022-11-20T09:58:05;5;4;
49914;PMS5003;35806;47.958;13.158;2022-11-20T10:00:37;4;4;
49914;PMS5003;35806;47.958;13.158;2022-11-20T10:03:06;8;4;
49914;PMS5003;35806;47.958;13.158;2022-11-20T10:05:43;4;4;
49914;PMS5003;35806;47.958;13.158;2022-11-20T10:08:14;5;3;
49914;PMS5003;35806;47.958;13.158;2022-11-20T10:10:47;5;4;
49914;PMS5003;35806;47.958;13.158;2022-11-20T10:13:23;5;4;
49914;PMS5003;35806;47.958;13.158;2022-11-20T10:16:16;3;3;
49914;PMS5003;35806;47.958;13.158;2022-11-20T10:19:00;2;2;
49914;PMS5003;35806;47.958;13.158;2022-11-20T10:21:38;3;3;
49914;PMS5003;35806;47.958;13.158;2022-11-20T10:24:27;2;2;
49914;PMS5003;35806;47.958;13.158;2022-11-20T10:27:49;2;2;
49914;PMS5003;35806;47.958;13.158;2022-11-20T10:30:57;3;3;
49914;PMS5003;35806;47.958;13.158;2022-11-20T10:33:29;1;1;
49914;PMS5003;35806;47.958;13.158;2022-11-20T10:36:04;2;2;
49914;PMS5003;35806;47.958;13.158;2022-11-20T10:38:42;3;2;
49914;PMS5003;35806;47.958;13.158;2022-11-20T10:41:14;2;2;
49914;PMS5003;35806;47.958;13.158;2022-11-20T10:43:46;3;3;
49914;PMS5003;35806;47.958;13.158;2022-11-20T10:46:18;2;2;
49914;PMS5003;35806;47.958;13.158;2022-11-20T10:48:47;4;3;
49914;PMS5003;35806;47.958;13.158;2022-11-20T10:51:18;1;1;
49914;PMS5003;35806;47.958;13.158;2022-11-20T10:54:06;4;4;
49914;PMS5003;35806;47.958;13.158;2022-11-20T10:56:46;3;3;
49914;PMS5003;35806;47.958;13.158;2022-11-20T10:59:22;3;3;
49914;PMS5003;35806;47.958;13.158;2022-11-20T11:02:14;2;1;
49914;PMS5003;35806;47.958;13.158;2022-11-20T11:04:44;2;1;
49914;PMS5003;35806;47.958;13.158;2022-11-20T11:07:15;3;3;
49914;PMS5003;35806;47.958;13.158;2022-11-20T11:09:47;3;3;
49914;PMS5003;35806;47.958;13.158;2022-11-20T11:12:16;2;2;
49914;PMS5003;35806;47.958;13.158;2022-11-20T11:14:45;2;2;
49914;PMS5003;35806;47.958;13.158;2022-11-20T11:17:22;2;2;
49914;PMS5003;35806;47.958;13.158;2022-11-20T11:19:59;2;2;
49914;PMS5003;35806;47.958;13.158;2022-11-20T11:22:28;2;2;
49914;PMS5003;35806;47.958;13.158;2022-11-20T11:24:56;2;0;
49914;PMS5003;35806;47.958;13.158;2022-11-20T11:27:23;2;2;
49914;PMS5003;35806;47.958;13.158;2022-11-20T11:30:00;1;1;
49914;PMS5003;35806;47.958;13.158;2022-11-20T11:32:30;2;2;
49914;PMS5003;35806;47.958;13.158;2022-11-20T11:35:00;3;3;
49914;PMS5003;35806;47.958;13.158;2022-11-20T11:37:32;2;2;
49914;PMS5003;35806;47.958;13.158;2022-11-20T11:40:01;4;1;
49914;PMS5003;35806;47.958;13.158;2022-11-20T11:42:31;2;2;
49914;PMS5003;35806;47.958;13.158;2022-11-20T11:44:59;3;3;
49914;PMS5003;35806;47.958;13.158;2022-11-20T11:47:29;2;1;
49914;PMS5003;35806;47.958;13.158;2022-11-20T11:50:07;1;1;
49914;PMS5003;35806;47.958;13.158;2022-11-20T11:52:43;3;1;
49914;PMS5003;35806;47.958;13.158;2022-11-20T11:55:17;2;2;
49914;PMS5003;35806;47.958;13.158;2022-11-20T11:57:54;2;2;
49914;PMS5003;35806;47.958;13.158;2022-11-20T12:00:28;2;2;
49914;PMS5003;35806;47.958;13.158;2022-11-20T12:03:03;5;2;
49914;PMS5003;35806;47.958;13.158;2022-11-20T12:05:37;2;0;
49914;PMS5003;35806;47.958;13.158;2022-11-20T12:08:12;2;2;
49914;PMS5003;35806;47.958;13.158;2022-11-20T12:10:46;1;1;
49914;PMS5003;35806;47.958;13.158;2022-11-20T12:13:20;0;0;
49914;PMS5003;35806;47.958;13.158;2022-11-20T12:15:56;2;2;
49914;PMS5003;35806;47.958;13.158;2022-11-20T12:18:25;1;1;
49914;PMS5003;35806;47.958;13.158;2022-11-20T12:21:12;0;0;
49914;PMS5003;35806;47.958;13.158;2022-11-20T12:23:50;1;1;
49914;PMS5003;35806;47.958;13.158;2022-11-20T12:26:31;1;1;
49914;PMS5003;35806;47.958;13.158;2022-11-20T12:29:09;1;1;
49914;PMS5003;35806;47.958;13.158;2022-11-20T12:31:51;0;0;
49914;PMS5003;35806;47.958;13.158;2022-11-20T12:34:35;1;1;
49914;PMS5003;35806;47.958;13.158;2022-11-20T12:37:17;0;0;
49914;PMS5003;35806;47.958;13.158;2022-11-20T12:39:57;2;2;
49914;PMS5003;35806;47.958;13.158;2022-11-20T12:42:33;1;1;
49914;PMS5003;35806;47.958;13.158;2022-11-20T12:45:13;1;1;
49914;PMS5003;35806;47.958;13.158;2022-11-20T12:47:58;1;1;
49914;PMS5003;35806;47.958;13.158;2022-11-20T12:51:11;0;0;
49914;PMS5003;35806;47.958;13.158;2022-11-20T12:53:54;3;3;
49914;PMS5003;35806;47.958;13.158;2022-11-20T12:56:31;0;0;
49914;PMS5003;35806;47.958;13.158;2022-11-20T12:59:13;0;0;
49914;PMS5003;35806;47.958;13.158;2022-11-20T13:01:52;1;1;
49914;PMS5003;35806;47.958;13.158;2022-11-20T13:04:31;1;1;
49914;PMS5003;35806;47.958;13.158;2022-11-20T13:07:14;1;1;
49914;PMS5003;35806;47.958;13.158;2022-11-20T13:09:43;1;1;
49914;PMS5003;35806;47.958;13.158;2022-11-20T13:12:14;1;1;
49914;PMS5003;35806;47.958;13.158;2022-11-20T13:14:52;1;1;
49914;PMS5003;35806;47.958;13.158;2022-11-20T13:17:28;1;1;
49914;PMS5003;35806;47.958;13.158;2022-11-20T13:20:04;2;2;
49914;PMS5003;35806;47.958;13.158;2022-11-20T13:22:43;2;2;
49914;PMS5003;35806;47.958;13.158;2022-11-20T13:25:21;2;1;
49914;PMS5003;35806;47.958;13.158;2022-11-20T13:27:49;0;0;
49914;PMS5003;35806;47.958;13.158;2022-11-20T13:30:17;0;0;
49914;PMS5003;35806;47.958;13.158;2022-11-20T13:32:50;0;0;
49914;PMS5003;35806;47.958;13.158;2022-11-20T13:35:27;3;1;
49914;PMS5003;35806;47.958;13.158;2022-11-20T13:38:01;0;0;
49914;PMS5003;35806;47.958;13.158;2022-11-20T13:40:30;2;2;
49914;PMS5003;35806;47.958;13.158;2022-11-20T13:43:04;1;1;
49914;PMS5003;35806;47.958;13.158;2022-11-20T13:45:42;1;1;
49914;PMS5003;35806;47.958;13.158;2022-11-20T13:48:20;2;2;
49914;PMS5003;35806;47.958;13.158;2022-11-20T13:50:54;0;0;
49914;PMS5003;35806;47.958;13.158;2022-11-20T13:53:34;1;1;
49914;PMS5003;35806;47.958;13.158;2022-11-20T13:56:23;1;1;
49914;PMS5003;35806;47.958;13.158;2022-11-20T13:59:14;0;0;
49914;PMS5003;35806;47.958;13.158;2022-11-20T14:01:57;2;2;
49914;PMS5003;35806;47.958;13.158;2022-11-20T14:04:26;4;2;
49914;PMS5003;35806;47.958;13.158;2022-11-20T14:06:58;2;2;
49914;PMS5003;35806;47.958;13.158;2022-11-20T14:09:27;1;1;
49914;PMS5003;35806;47.958;13.158;2022-11-20T14:11:55;1;1;
49914;PMS5003;35806;47.958;13.158;2022-11-20T14:14:23;0;0;
49914;PMS5003;35806;47.958;13.158;2022-11-20T14:16:52;1;1;
49914;PMS5003;35806;47.958;13.158;2022-11-20T14:19:23;2;1;
49914;PMS5003;35806;47.958;13.158;2022-11-20T14:21:53;2;2;
49914;PMS5003;35806;47.958;13.158;2022-11-20T14:24:32;1;1;
49914;PMS5003;35806;47.958;13.158;2022-11-20T14:27:00;2;2;
49914;PMS5003;35806;47.958;13.158;2022-11-20T14:29:28;2;2;
49914;PMS5003;35806;47.958;13.158;2022-11-20T14:32:00;2;2;
49914;PMS5003;35806;47.958;13.158;2022-11-20T14:34:30;1;1;
49914;PMS5003;35806;47.958;13.158;2022-11-20T14:37:03;3;3;
49914;PMS5003;35806;47.958;13.158;2022-11-20T14:39:33;95;81;
49914;PMS5003;35806;47.958;13.158;2022-11-20T14:42:03;39;37;
49914;PMS5003;35806;47.958;13.158;2022-11-20T14:44:41;86;76;
49914;PMS5003;35806;47.958;13.158;2022-11-20T14:47:10;42;41;
49914;PMS5003;35806;47.958;13.158;2022-11-20T14:49:39;37;34;
49914;PMS5003;35806;47.958;13.158;2022-11-20T14:52:11;124;105;
49914;PMS5003;35806;47.958;13.158;2022-11-20T14:54:44;116;103;
49914;PMS5003;35806;47.958;13.158;2022-11-20T14:57:20;31;28;
49914;PMS5003;35806;47.958;13.158;2022-11-20T14:59:50;39;34;
49914;PMS5003;35806;47.958;13.158;2022-11-20T15:02:17;6;6;
49914;PMS5003;35806;47.958;13.158;2022-11-20T15:04:45;8;8;
49914;PMS5003;35806;47.958;13.158;2022-11-20T15:07:22;11;9;
49914;PMS5003;35806;47.958;13.158;2022-11-20T15:10:00;9;6;
49914;PMS5003;35806;47.958;13.158;2022-11-20T15:12:28;6;6;
49914;PMS5003;35806;47.958;13.158;2022-11-20T15:14:56;7;7;
49914;PMS5003;35806;47.958;13.158;2022-11-20T15:17:24;13;11;
49914;PMS5003;35806;47.958;13.158;2022-11-20T15:19:51;5;5;
49914;PMS5003;35806;47.958;13.158;2022-11-20T15:22:20;5;4;
49914;PMS5003;35806;47.958;13.158;2022-11-20T15:24:47;3;3;
49914;PMS5003;35806;47.958;13.158;2022-11-20T15:27:13;4;4;
49914;PMS5003;35806;47.958;13.158;2022-11-20T15:29:40;3;3;
49914;PMS5003;35806;47.958;13.158;2022-11-20T15:32:08;4;4;
49914;PMS5003;35806;47.958;13.158;2022-11-20T15:34:35;5;3;
49914;PMS5003;35806;47.958;13.158;2022-11-20T15:37:02;4;4;
49914;PMS5003;35806;47.958;13.158;2022-11-20T15:39:29;1;1;
49914;PMS5003;35806;47.958;13.158;2022-11-20T15:41:56;1;1;
49914;PMS5003;35806;47.958;13.158;2022-11-20T15:44:23;2;2;
49914;PMS5003;35806;47.958;13.158;2022-11-20T15:46:50;1;1;
49914;PMS5003;35806;47.958;13.158;2022-11-20T15:49:17;1;1;
49914;PMS5003;35806;47.958;13.158;2022-11-20T15:51:44;1;1;
49914;PMS5003;35806;47.958;13.158;2022-11-20T15:54:14;1;1;
49914;PMS5003;35806;47.958;13.158;2022-11-20T15:56:42;2;2;
49914;PMS5003;35806;47.958;13.158;2022-11-20T15:59:10;2;2;
49914;PMS5003;35806;47.958;13.158;2022-11-20T16:01:37;1;1;
49914;PMS5003;35806;47.958;13.158;2022-11-20T16:04:04;2;2;
49914;PMS5003;35806;47.958;13.158;2022-11-20T16:06:35;1;1;
49914;PMS5003;35806;47.958;13.158;2022-11-20T16:09:02;1;1;
49914;PMS5003;35806;47.958;13.158;2022-11-20T16:11:29;1;1;
49914;PMS5003;35806;47.958;13.158;2022-11-20T16:13:56;1;1;
49914;PMS5003;35806;47.958;13.158;2022-11-20T16:16:23;2;2;
49914;PMS5003;35806;47.958;13.158;2022-11-20T16:18:55;2;2;
49914;PMS5003;35806;47.958;13.158;2022-11-20T16:21:23;1;1;
49914;PMS5003;35806;47.958;13.158;2022-11-20T16:23:50;5;5;
49914;PMS5003;35806;47.958;13.158;2022-11-20T16:26:17;2;2;
49914;PMS5003;35806;47.958;13.158;2022-11-20T16:28:45;3;3;
49914;PMS5003;35806;47.958;13.158;2022-11-20T16:31:12;3;3;
49914;PMS5003;35806;47.958;13.158;2022-11-20T16:33:40;4;3;
49914;PMS5003;35806;47.958;13.158;2022-11-20T16:36:08;7;7;
49914;PMS5003;35806;47.958;13.158;2022-11-20T16:38:36;6;5;
49914;PMS5003;35806;47.958;13.158;2022-11-20T16:41:04;3;3;
49914;PMS5003;35806;47.958;13.158;2022-11-20T16:43:32;2;2;
49914;PMS5003;35806;47.958;13.158;2022-11-20T16:46:00;2;2;
49914;PMS5003;35806;47.958;13.158;2022-11-20T16:48:30;5;5;
49914;PMS5003;35806;47.958;13.158;2022-11-20T16:50:57;3;3;
49914;PMS5003;35806;47.958;13.158;2022-11-20T16:53:25;6;4;
49914;PMS5003;35806;47.958;13.158;2022-11-20T16:55:52;35;32;
49914;PMS5003;35806;47.958;13.158;2022-11-20T16:58:19;5;5;
49914;PMS5003;35806;47.958;13.158;2022-11-20T17:00:46;4;4;
49914;PMS5003;35806;47.958;13.158;2022-11-20T17:03:13;2;2;
49914;PMS5003;35806;47.958;13.158;2022-11-20T17:05:40;6;6;
49914;PMS5003;35806;47.958;13.158;2022-11-20T17:08:07;5;5;
49914;PMS5003;35806;47.958;13.158;2022-11-20T17:10:34;6;6;
49914;PMS5003;35806;47.958;13.158;2022-11-20T17:13:01;4;4;
49914;PMS5003;35806;47.958;13.158;2022-11-20T17:15:28;4;4;
49914;PMS5003;35806;47.958;13.158;2022-11-20T17:17:54;4;3;
49914;PMS5003;35806;47.958;13.158;2022-11-20T17:20:21;4;4;
49914;PMS5003;35806;47.958;13.158;2022-11-20T17:22:48;4;4;
49914;PMS5003;35806;47.958;13.158;2022-11-20T17:25:15;4;3;
49914;PMS5003;35806;47.958;13.158;2022-11-20T17:27:42;5;5;
49914;PMS5003;35806;47.958;13.158;2022-11-20T17:30:09;5;5;
49914;PMS5003;35806;47.958;13.158;2022-11-20T17:32:37;3;3;
49914;PMS5003;35806;47.958;13.158;2022-11-20T17:35:04;6;6;
49914;PMS5003;35806;47.958;13.158;2022-11-20T17:37:31;5;5;
49914;PMS5003;35806;47.958;13.158;2022-11-20T17:39:58;4;4;
49914;PMS5003;35806;47.958;13.158;2022-11-20T17:42:26;3;3;
49914;PMS5003;35806;47.958;13.158;2022-11-20T17:44:52;4;4;
49914;PMS5003;35806;47.958;13.158;2022-11-20T17:47:19;5;5;
49914;PMS5003;35806;47.958;13.158;2022-11-20T17:49:46;4;4;
49914;PMS5003;35806;47.958;13.158;2022-11-20T17:52:18;5;5;
49914;PMS5003;35806;47.958;13.158;2022-11-20T17:54:45;10;10;
49914;PMS5003;35806;47.958;13.158;2022-11-20T17:57:12;8;6;
49914;PMS5003;35806;47.958;13.158;2022-11-20T17:59:38;6;6;
49914;PMS5003;35806;47.958;13.158;2022-11-20T18:02:05;3;3;
49914;PMS5003;35806;47.958;13.158;2022-11-20T18:04:33;3;3;
49914;PMS5003;35806;47.958;13.158;2022-11-20T18:07:00;4;4;
49914;PMS5003;35806;47.958;13.158;2022-11-20T18:09:26;4;4;
49914;PMS5003;35806;47.958;13.158;2022-11-20T18:11:54;5;3;
49914;PMS5003;35806;47.958;13.158;2022-11-20T18:14:22;3;3;
49914;PMS5003;35806;47.958;13.158;2022-11-20T18:16:50;3;3;
49914;PMS5003;35806;47.958;13.158;2022-11-20T18:19:21;5;5;
49914;PMS5003;35806;47.958;13.158;2022-11-20T18:21:49;4;4;
49914;PMS5003;35806;47.958;13.158;2022-11-20T18:24:16;6;5;
49914;PMS5003;35806;47.958;13.158;2022-11-20T18:26:43;7;6;
49914;PMS5003;35806;47.958;13.158;2022-11-20T18:29:11;5;5;
49914;PMS5003;35806;47.958;13.158;2022-11-20T18:31:40;7;7;
49914;PMS5003;35806;47.958;13.158;2022-11-20T18:34:07;9;7;
49914;PMS5003;35806;47.958;13.158;2022-11-20T18:36:35;5;5;
49914;PMS5003;35806;47.958;13.158;2022-11-20T18:39:02;6;6;
49914;PMS5003;35806;47.958;13.158;2022-11-20T18:41:30;6;6;
49914;PMS5003;35806;47.958;13.158;2022-11-20T18:43:58;6;6;
49914;PMS5003;35806;47.958;13.158;2022-11-20T18:46:25;5;5;
49914;PMS5003;35806;47.958;13.158;2022-11-20T18:48:52;5;5;
49914;PMS5003;35806;47.958;13.158;2022-11-20T18:51:19;4;3;
49914;PMS5003;35806;47.958;13.158;2022-11-20T18:53:46;5;5;
49914;PMS5003;35806;47.958;13.158;2022-11-20T18:56:12;5;4;
49914;PMS5003;35806;47.958;13.158;2022-11-20T18:58:39;7;7;
49914;PMS5003;35806;47.958;13.158;2022-11-20T19:01:06;4;4;
49914;PMS5003;35806;47.958;13.158;2022-11-20T19:03:34;7;5;
49914;PMS5003;35806;47.958;13.158;2022-11-20T19:06:00;5;5;
49914;PMS5003;35806;47.958;13.158;2022-11-20T19:08:27;28;24;
49914;PMS5003;35806;47.958;13.158;2022-11-20T19:10:54;7;6;
49914;PMS5003;35806;47.958;13.158;2022-11-20T19:13:31;4;4;
49914;PMS5003;35806;47.958;13.158;2022-11-20T19:16:00;6;6;
49914;PMS5003;35806;47.958;13.158;2022-11-20T19:18:27;5;5;
49914;PMS5003;35806;47.958;13.158;2022-11-20T19:20:55;6;5;
49914;PMS5003;35806;47.958;13.158;2022-11-20T19:23:23;5;5;
49914;PMS5003;35806;47.958;13.158;2022-11-20T19:25:49;5;5;
49914;PMS5003;35806;47.958;13.158;2022-11-20T19:28:16;5;5;
49914;PMS5003;35806;47.958;13.158;2022-11-20T19:30:43;5;5;
49914;PMS5003;35806;47.958;13.158;2022-11-20T19:33:10;7;5;
49914;PMS5003;35806;47.958;13.158;2022-11-20T19:35:37;8;7;
49914;PMS5003;35806;47.958;13.158;2022-11-20T19:38:03;7;7;
49914;PMS5003;35806;47.958;13.158;2022-11-20T19:40:30;8;7;
49914;PMS5003;35806;47.958;13.158;2022-11-20T19:42:57;5;3;
49914;PMS5003;35806;47.958;13.158;2022-11-20T19:45:25;3;3;
49914;PMS5003;35806;47.958;13.158;2022-11-20T19:47:51;4;4;
49914;PMS5003;35806;47.958;13.158;2022-11-20T19:50:18;6;5;
49914;PMS5003;35806;47.958;13.158;2022-11-20T19:52:45;28;28;
49914;PMS5003;35806;47.958;13.158;2022-11-20T19:55:12;25;23;
49914;PMS5003;35806;47.958;13.158;2022-11-20T19:57:39;17;16;
49914;PMS5003;35806;47.958;13.158;2022-11-20T20:00:07;5;5;
49914;PMS5003;35806;47.958;13.158;2022-11-20T20:02:35;12;12;
49914;PMS5003;35806;47.958;13.158;2022-11-20T20:05:02;9;9;
49914;PMS5003;35806;47.958;13.158;2022-11-20T20:07:30;4;4;
49914;PMS5003;35806;47.958;13.158;2022-11-20T20:09:57;3;3;
49914;PMS5003;35806;47.958;13.158;2022-11-20T20:12:25;3;3;
49914;PMS5003;35806;47.958;13.158;2022-11-20T20:14:52;14;14;
49914;PMS5003;35806;47.958;13.158;2022-11-20T20:17:18;11;11;
49914;PMS5003;35806;47.958;13.158;2022-11-20T20:19:45;10;10;
49914;PMS5003;35806;47.958;13.158;2022-11-20T20:22:13;8;8;
49914;PMS5003;35806;47.958;13.158;2022-11-20T20:24:40;6;5;
49914;PMS5003;35806;47.958;13.158;2022-11-20T20:27:06;4;4;
49914;PMS5003;35806;47.958;13.158;2022-11-20T20:29:33;5;4;
49914;PMS5003;35806;47.958;13.158;2022-11-20T20:32:00;5;5;
49914;PMS5003;35806;47.958;13.158;2022-11-20T20:34:27;4;4;
49914;PMS5003;35806;47.958;13.158;2022-11-20T20:36:55;7;5;
49914;PMS5003;35806;47.958;13.158;2022-11-20T20:39:22;6;5;
49914;PMS5003;35806;47.958;13.158;2022-11-20T20:41:54;5;5;
49914;PMS5003;35806;47.958;13.158;2022-11-20T20:44:21;4;4;
49914;PMS5003;35806;47.958;13.158;2022-11-20T20:46:50;5;5;
49914;PMS5003;35806;47.958;13.158;2022-11-20T20:49:17;4;4;
49914;PMS5003;35806;47.958;13.158;2022-11-20T20:51:45;3;3;
49914;PMS5003;35806;47.958;13.158;2022-11-20T20:54:11;4;4;
49914;PMS5003;35806;47.958;13.158;2022-11-20T20:56:39;3;3;
49914;PMS5003;35806;47.958;13.158;2022-11-20T20:59:06;4;4;
49914;PMS5003;35806;47.958;13.158;2022-11-20T21:01:33;5;3;
49914;PMS5003;35806;47.958;13.158;2022-11-20T21:04:01;3;3;
49914;PMS5003;35806;47.958;13.158;2022-11-20T21:06:28;3;3;
49914;PMS5003;35806;47.958;13.158;2022-11-20T21:08:55;3;3;
49914;PMS5003;35806;47.958;13.158;2022-11-20T21:11:21;3;3;
49914;PMS5003;35806;47.958;13.158;2022-11-20T21:13:48;3;3;
49914;PMS5003;35806;47.958;13.158;2022-11-20T21:16:17;4;4;
49914;PMS5003;35806;47.958;13.158;2022-11-20T21:18:45;3;3;
49914;PMS5003;35806;47.958;13.158;2022-11-20T21:21:13;5;5;
49914;PMS5003;35806;47.958;13.158;2022-11-20T21:23:44;3;2;
49914;PMS5003;35806;47.958;13.158;2022-11-20T21:26:12;5;5;
49914;PMS5003;35806;47.958;13.158;2022-11-20T21:28:39;5;5;
49914;PMS5003;35806;47.958;13.158;2022-11-20T21:31:08;6;4;
49914;PMS5003;35806;47.958;13.158;2022-11-20T21:33:37;7;5;
49914;PMS5003;35806;47.958;13.158;2022-11-20T21:36:05;5;5;
49914;PMS5003;35806;47.958;13.158;2022-11-20T21:38:34;5;5;
49914;PMS5003;35806;47.958;13.158;2022-11-20T21:41:02;6;6;
49914;PMS5003;35806;47.958;13.158;2022-11-20T21:43:31;9;8;
49914;PMS5003;35806;47.958;13.158;2022-11-20T21:45:59;6;6;
49914;PMS5003;35806;47.958;13.158;2022-11-20T21:48:28;8;7;
49914;PMS5003;35806;47.958;13.158;2022-11-20T21:50:56;7;6;
49914;PMS5003;35806;47.958;13.158;2022-11-20T21:53:28;10;8;
49914;PMS5003;35806;47.958;13.158;2022-11-20T21:55:55;6;6;
49914;PMS5003;35806;47.958;13.158;2022-11-20T21:58:24;8;7;
49914;PMS5003;35806;47.958;13.158;2022-11-20T22:00:51;8;6;
49914;PMS5003;35806;47.958;13.158;2022-11-20T22:03:19;9;9;
49914;PMS5003;35806;47.958;13.158;2022-11-20T22:05:54;8;8;
49914;PMS5003;35806;47.958;13.158;2022-11-20T22:08:22;6;6;
49914;PMS5003;35806;47.958;13.158;2022-11-20T22:10:55;6;5;
49914;PMS5003;35806;47.958;13.158;2022-11-20T22:13:24;6;5;
49914;PMS5003;35806;47.958;13.158;2022-11-20T22:15:52;6;6;
49914;PMS5003;35806;47.958;13.158;2022-11-20T22:18:19;6;4;
49914;PMS5003;35806;47.958;13.158;2022-11-20T22:20:45;6;6;
49914;PMS5003;35806;47.958;13.158;2022-11-20T22:23:12;8;7;
49914;PMS5003;35806;47.958;13.158;2022-11-20T22:25:39;8;5;
49914;PMS5003;35806;47.958;13.158;2022-11-20T22:28:06;8;6;
49914;PMS5003;35806;47.958;13.158;2022-11-20T22:30:33;7;6;
49914;PMS5003;35806;47.958;13.158;2022-11-20T22:32:59;10;7;
49914;PMS5003;35806;47.958;13.158;2022-11-20T22:35:26;6;6;
49914;PMS5003;35806;47.958;13.158;2022-11-20T22:37:53;6;6;
49914;PMS5003;35806;47.958;13.158;2022-11-20T22:40:20;8;8;
49914;PMS5003;35806;47.958;13.158;2022-11-20T22:42:47;7;6;
49914;PMS5003;35806;47.958;13.158;2022-11-20T22:45:14;7;7;
49914;PMS5003;35806;47.958;13.158;2022-11-20T22:47:41;11;9;
49914;PMS5003;35806;47.958;13.158;2022-11-20T22:50:09;7;7;
49914;PMS5003;35806;47.958;13.158;2022-11-20T22:52:36;6;6;
49914;PMS5003;35806;47.958;13.158;2022-11-20T22:55:03;7;7;
49914;PMS5003;35806;47.958;13.158;2022-11-20T22:57:31;11;8;
49914;PMS5003;35806;47.958;13.158;2022-11-20T22:59:58;8;8;
49914;PMS5003;35806;47.958;13.158;2022-11-20T23:02:26;8;8;
49914;PMS5003;35806;47.958;13.158;2022-11-20T23:04:53;9;8;
49914;PMS5003;35806;47.958;13.158;2022-11-20T23:07:20;10;8;
49914;PMS5003;35806;47.958;13.158;2022-11-20T23:09:46;9;8;
49914;PMS5003;35806;47.958;13.158;2022-11-20T23:12:14;6;6;
49914;PMS5003;35806;47.958;13.158;2022-11-20T23:14:41;8;8;
49914;PMS5003;35806;47.958;13.158;2022-11-20T23:17:07;8;8;
49914;PMS5003;35806;47.958;13.158;2022-11-20T23:19:35;8;7;
49914;PMS5003;35806;47.958;13.158;2022-11-20T23:22:02;8;7;
49914;PMS5003;35806;47.958;13.158;2022-11-20T23:24:29;8;8;
49914;PMS5003;35806;47.958;13.158;2022-11-20T23:26:55;6;6;
49914;PMS5003;35806;47.958;13.158;2022-11-20T23:29:23;11;9;
49914;PMS5003;35806;47.958;13.158;2022-11-20T23:31:50;6;6;
49914;PMS5003;35806;47.958;13.158;2022-11-20T23:34:17;5;5;
49914;PMS5003;35806;47.958;13.158;2022-11-20T23:36:44;7;7;
49914;PMS5003;35806;47.958;13.158;2022-11-20T23:39:11;10;8;
49914;PMS5003;35806;47.958;13.158;2022-11-20T23:41:37;8;8;
49914;PMS5003;35806;47.958;13.158;2022-11-20T23:44:04;6;6;
49914;PMS5003;35806;47.958;13.158;2022-11-20T23:46:32;8;7;
49914;PMS5003;35806;47.958;13.158;2022-11-20T23:48:59;7;7;
49914;PMS5003;35806;47.958;13.158;2022-11-20T23:51:26;9;8;
49914;PMS5003;35806;47.958;13.158;2022-11-20T23:53:52;7;6;
49914;PMS5003;35806;47.958;13.158;2022-11-20T23:56:19;5;5;
49914;PMS5003;35806;47.958;13.158;2022-11-20T23:58:46;6;5;
